sensor_id;sensor_type;location;lat;lon;timestamp;temperature;humidity
47757;SHT35;22147;52.388;13.390;2023-06-01T00:00:53;12.45;71.99
47757;SHT35;22147;52.388;13.390;2023-06-01T00:03:26;12.48;72.10
47757;SHT35;22147;52.388;13.390;2023-06-01T00:05:55;12.52;72.43
47757;SHT35;22147;52.388;13.390;2023-06-01T00:08:25;12.51;72.26
47757;SHT35;22147;52.388;13.390;2023-06-01T00:10:54;12.44;72.52
47757;SHT35;22147;52.388;13.390;2023-06-01T00:13:22;12.36;72.74
47757;SHT35;22147;52.388;13.390;2023-06-01T00:15:51;12.25;72.87
47757;SHT35;22147;52.388;13.390;2023-06-01T00:18:19;12.22;73.30
47757;SHT35;22147;52.388;13.390;2023-06-01T00:20:48;12.22;73.54
47757;SHT35;22147;52.388;13.390;2023-06-01T00:23:18;12.15;73.93
47757;SHT35;22147;52.388;13.390;2023-06-01T00:25:48;12.18;74.34
47757;SHT35;22147;52.388;13.390;2023-06-01T00:28:16;12.15;74.19
47757;SHT35;22147;52.388;13.390;2023-06-01T00:30:44;12.14;74.37
47757;SHT35;22147;52.388;13.390;2023-06-01T00:33:13;12.11;74.56
47757;SHT35;22147;52.388;13.390;2023-06-01T00:35:41;12.10;74.65
47757;SHT35;22147;52.388;13.390;2023-06-01T00:38:10;12.11;74.69
47757;SHT35;22147;52.388;13.390;2023-06-01T00:40:38;12.10;74.79
47757;SHT35;22147;52.388;13.390;2023-06-01T00:43:07;12.10;75.03
47757;SHT35;22147;52.388;13.390;2023-06-01T00:45:36;12.08;75.33
47757;SHT35;22147;52.388;13.390;2023-06-01T00:48:08;12.10;75.51
47757;SHT35;22147;52.388;13.390;2023-06-01T00:50:39;12.13;75.69
47757;SHT35;22147;52.388;13.390;2023-06-01T00:53:20;12.11;75.75
47757;SHT35;22147;52.388;13.390;2023-06-01T00:55:50;12.08;75.99
47757;SHT35;22147;52.388;13.390;2023-06-01T00:58:21;12.07;76.06
47757;SHT35;22147;52.388;13.390;2023-06-01T01:00:51;12.11;76.23
47757;SHT35;22147;52.388;13.390;2023-06-01T01:03:24;12.01;76.29
47757;SHT35;22147;52.388;13.390;2023-06-01T01:09:53;11.97;77.17
47757;SHT35;22147;52.388;13.390;2023-06-01T01:12:46;11.90;77.22
47757;SHT35;22147;52.388;13.390;2023-06-01T01:15:36;11.86;77.15
47757;SHT35;22147;52.388;13.390;2023-06-01T01:21:49;11.87;77.44
47757;SHT35;22147;52.388;13.390;2023-06-01T01:25:20;11.86;77.91
47757;SHT35;22147;52.388;13.390;2023-06-01T01:30:46;11.84;78.23
47757;SHT35;22147;52.388;13.390;2023-06-01T01:33:18;11.87;78.32
47757;SHT35;22147;52.388;13.390;2023-06-01T01:35:50;11.90;78.56
47757;SHT35;22147;52.388;13.390;2023-06-01T01:38:21;11.94;78.66
47757;SHT35;22147;52.388;13.390;2023-06-01T01:40:51;12.04;78.85
47757;SHT35;22147;52.388;13.390;2023-06-01T01:43:24;12.14;79.04
47757;SHT35;22147;52.388;13.390;2023-06-01T01:46:27;12.20;78.77
47757;SHT35;22147;52.388;13.390;2023-06-01T01:49:26;12.25;78.78
47757;SHT35;22147;52.388;13.390;2023-06-01T01:52:16;12.32;78.93
47757;SHT35;22147;52.388;13.390;2023-06-01T01:54:50;12.41;79.08
47757;SHT35;22147;52.388;13.390;2023-06-01T01:57:20;12.46;79.54
47757;SHT35;22147;52.388;13.390;2023-06-01T01:59:53;12.61;79.22
47757;SHT35;22147;52.388;13.390;2023-06-01T02:02:25;12.75;78.90
47757;SHT35;22147;52.388;13.390;2023-06-01T02:04:56;12.89;78.42
47757;SHT35;22147;52.388;13.390;2023-06-01T02:07:26;12.97;78.15
47757;SHT35;22147;52.388;13.390;2023-06-01T02:09:57;13.03;77.87
47757;SHT35;22147;52.388;13.390;2023-06-01T02:12:26;13.03;77.79
47757;SHT35;22147;52.388;13.390;2023-06-01T02:14:57;13.03;78.11
47757;SHT35;22147;52.388;13.390;2023-06-01T02:17:27;13.00;78.14
47757;SHT35;22147;52.388;13.390;2023-06-01T02:19:57;13.00;78.30
47757;SHT35;22147;52.388;13.390;2023-06-01T02:22:28;13.03;78.47
47757;SHT35;22147;52.388;13.390;2023-06-01T02:24:59;13.01;78.54
47757;SHT35;22147;52.388;13.390;2023-06-01T02:27:29;13.01;78.57
47757;SHT35;22147;52.388;13.390;2023-06-01T02:29:59;12.99;78.76
47757;SHT35;22147;52.388;13.390;2023-06-01T02:32:30;12.93;78.72
47757;SHT35;22147;52.388;13.390;2023-06-01T02:35:00;12.94;78.88
47757;SHT35;22147;52.388;13.390;2023-06-01T02:37:31;12.82;79.09
47757;SHT35;22147;52.388;13.390;2023-06-01T02:40:01;12.80;79.66
47757;SHT35;22147;52.388;13.390;2023-06-01T02:42:31;12.80;79.82
47757;SHT35;22147;52.388;13.390;2023-06-01T02:45:02;12.73;79.90
47757;SHT35;22147;52.388;13.390;2023-06-01T02:47:35;12.73;80.21
47757;SHT35;22147;52.388;13.390;2023-06-01T02:50:06;12.75;80.29
47757;SHT35;22147;52.388;13.390;2023-06-01T02:52:36;12.71;80.41
47757;SHT35;22147;52.388;13.390;2023-06-01T02:55:07;12.62;80.43
47757;SHT35;22147;52.388;13.390;2023-06-01T02:57:38;12.61;80.62
47757;SHT35;22147;52.388;13.390;2023-06-01T03:00:09;12.59;81.03
47757;SHT35;22147;52.388;13.390;2023-06-01T03:02:46;12.63;81.02
47757;SHT35;22147;52.388;13.390;2023-06-01T03:05:16;12.61;81.06
47757;SHT35;22147;52.388;13.390;2023-06-01T03:07:47;12.58;81.24
47757;SHT35;22147;52.388;13.390;2023-06-01T03:10:18;12.55;81.33
47757;SHT35;22147;52.388;13.390;2023-06-01T03:12:50;12.53;81.40
47757;SHT35;22147;52.388;13.390;2023-06-01T03:15:20;12.61;81.61
47757;SHT35;22147;52.388;13.390;2023-06-01T03:17:50;12.58;81.56
47757;SHT35;22147;52.388;13.390;2023-06-01T03:20:21;12.62;81.62
47757;SHT35;22147;52.388;13.390;2023-06-01T03:22:51;12.61;81.77
47757;SHT35;22147;52.388;13.390;2023-06-01T03:25:21;12.63;81.75
47757;SHT35;22147;52.388;13.390;2023-06-01T03:27:52;12.65;81.86
47757;SHT35;22147;52.388;13.390;2023-06-01T03:30:23;12.71;81.72
47757;SHT35;22147;52.388;13.390;2023-06-01T03:32:54;12.72;81.77
47757;SHT35;22147;52.388;13.390;2023-06-01T03:35:24;12.69;81.89
47757;SHT35;22147;52.388;13.390;2023-06-01T03:37:55;12.72;81.79
47757;SHT35;22147;52.388;13.390;2023-06-01T03:40:23;12.80;81.71
47757;SHT35;22147;52.388;13.390;2023-06-01T03:42:52;12.77;81.62
47757;SHT35;22147;52.388;13.390;2023-06-01T03:45:20;12.75;81.75
47757;SHT35;22147;52.388;13.390;2023-06-01T03:47:49;12.77;81.80
47757;SHT35;22147;52.388;13.390;2023-06-01T03:50:17;12.83;81.91
47757;SHT35;22147;52.388;13.390;2023-06-01T03:52:46;12.80;81.89
47757;SHT35;22147;52.388;13.390;2023-06-01T03:55:16;12.79;82.22
47757;SHT35;22147;52.388;13.390;2023-06-01T03:57:44;12.80;82.07
47757;SHT35;22147;52.388;13.390;2023-06-01T04:00:13;12.75;82.43
47757;SHT35;22147;52.388;13.390;2023-06-01T04:02:58;12.79;82.49
47757;SHT35;22147;52.388;13.390;2023-06-01T04:05:31;12.79;82.44
47757;SHT35;22147;52.388;13.390;2023-06-01T04:08:01;12.72;82.57
47757;SHT35;22147;52.388;13.390;2023-06-01T04:10:31;12.73;82.54
47757;SHT35;22147;52.388;13.390;2023-06-01T04:13:01;12.72;82.66
47757;SHT35;22147;52.388;13.390;2023-06-01T04:15:32;12.73;82.78
47757;SHT35;22147;52.388;13.390;2023-06-01T04:18:03;12.73;82.63
47757;SHT35;22147;52.388;13.390;2023-06-01T04:20:31;12.68;82.96
47757;SHT35;22147;52.388;13.390;2023-06-01T04:22:59;12.73;83.06
47757;SHT35;22147;52.388;13.390;2023-06-01T04:25:28;12.71;83.02
47757;SHT35;22147;52.388;13.390;2023-06-01T04:27:56;12.71;82.76
47757;SHT35;22147;52.388;13.390;2023-06-01T04:30:25;12.73;82.74
47757;SHT35;22147;52.388;13.390;2023-06-01T04:32:54;12.75;82.71
47757;SHT35;22147;52.388;13.390;2023-06-01T04:35:22;12.84;82.90
47757;SHT35;22147;52.388;13.390;2023-06-01T04:37:50;12.97;82.22
47757;SHT35;22147;52.388;13.390;2023-06-01T04:40:18;13.07;81.94
47757;SHT35;22147;52.388;13.390;2023-06-01T04:42:47;13.10;81.42
47757;SHT35;22147;52.388;13.390;2023-06-01T04:45:18;13.08;81.46
47757;SHT35;22147;52.388;13.390;2023-06-01T04:47:47;13.04;81.27
47757;SHT35;22147;52.388;13.390;2023-06-01T04:50:16;13.03;81.69
47757;SHT35;22147;52.388;13.390;2023-06-01T04:52:44;12.97;81.69
47757;SHT35;22147;52.388;13.390;2023-06-01T04:55:12;12.90;81.86
47757;SHT35;22147;52.388;13.390;2023-06-01T04:57:45;12.82;81.98
47757;SHT35;22147;52.388;13.390;2023-06-01T05:00:15;12.77;82.25
47757;SHT35;22147;52.388;13.390;2023-06-01T05:02:48;12.68;82.29
47757;SHT35;22147;52.388;13.390;2023-06-01T05:05:19;12.46;82.78
47757;SHT35;22147;52.388;13.390;2023-06-01T05:07:49;12.42;83.07
47757;SHT35;22147;52.388;13.390;2023-06-01T05:10:17;12.34;83.52
47757;SHT35;22147;52.388;13.390;2023-06-01T05:12:46;12.31;83.35
47757;SHT35;22147;52.388;13.390;2023-06-01T05:15:17;12.14;83.90
47757;SHT35;22147;52.388;13.390;2023-06-01T05:17:47;12.14;84.28
47757;SHT35;22147;52.388;13.390;2023-06-01T05:20:20;12.11;84.57
47757;SHT35;22147;52.388;13.390;2023-06-01T05:22:50;12.14;84.62
47757;SHT35;22147;52.388;13.390;2023-06-01T05:25:20;12.10;84.62
47757;SHT35;22147;52.388;13.390;2023-06-01T05:27:49;12.13;84.77
47757;SHT35;22147;52.388;13.390;2023-06-01T05:30:19;12.15;84.86
47757;SHT35;22147;52.388;13.390;2023-06-01T05:32:50;12.21;84.50
47757;SHT35;22147;52.388;13.390;2023-06-01T05:35:21;12.15;84.73
47757;SHT35;22147;52.388;13.390;2023-06-01T05:37:51;12.21;84.57
47757;SHT35;22147;52.388;13.390;2023-06-01T05:40:21;12.21;84.66
47757;SHT35;22147;52.388;13.390;2023-06-01T05:42:52;12.25;84.58
47757;SHT35;22147;52.388;13.390;2023-06-01T05:45:21;12.22;84.55
47757;SHT35;22147;52.388;13.390;2023-06-01T05:47:51;12.31;84.57
47757;SHT35;22147;52.388;13.390;2023-06-01T05:50:22;12.31;84.21
47757;SHT35;22147;52.388;13.390;2023-06-01T05:52:51;12.29;84.32
47757;SHT35;22147;52.388;13.390;2023-06-01T05:55:20;12.31;84.07
47757;SHT35;22147;52.388;13.390;2023-06-01T05:57:50;12.29;84.26
47757;SHT35;22147;52.388;13.390;2023-06-01T06:00:20;12.44;83.63
47757;SHT35;22147;52.388;13.390;2023-06-01T06:02:50;12.51;82.78
47757;SHT35;22147;52.388;13.390;2023-06-01T06:05:20;12.52;82.40
47757;SHT35;22147;52.388;13.390;2023-06-01T06:07:50;12.51;82.02
47757;SHT35;22147;52.388;13.390;2023-06-01T06:10:20;12.56;81.70
47757;SHT35;22147;52.388;13.390;2023-06-01T06:12:50;12.72;80.79
47757;SHT35;22147;52.388;13.390;2023-06-01T06:15:21;12.80;80.34
47757;SHT35;22147;52.388;13.390;2023-06-01T06:17:51;13.00;80.06
47757;SHT35;22147;52.388;13.390;2023-06-01T06:20:21;13.23;79.40
47757;SHT35;22147;52.388;13.390;2023-06-01T06:22:52;13.38;77.38
47757;SHT35;22147;52.388;13.390;2023-06-01T06:25:22;13.42;76.91
47757;SHT35;22147;52.388;13.390;2023-06-01T06:27:53;13.45;76.73
47757;SHT35;22147;52.388;13.390;2023-06-01T06:30:23;13.47;76.54
47757;SHT35;22147;52.388;13.390;2023-06-01T06:32:54;13.52;76.11
47757;SHT35;22147;52.388;13.390;2023-06-01T06:35:24;13.55;75.55
47757;SHT35;22147;52.388;13.390;2023-06-01T06:37:54;13.72;75.74
47757;SHT35;22147;52.388;13.390;2023-06-01T06:40:24;13.79;74.83
47757;SHT35;22147;52.388;13.390;2023-06-01T06:42:55;13.90;74.72
47757;SHT35;22147;52.388;13.390;2023-06-01T06:45:23;14.03;74.20
47757;SHT35;22147;52.388;13.390;2023-06-01T06:47:53;14.19;73.62
47757;SHT35;22147;52.388;13.390;2023-06-01T06:50:23;14.21;73.26
47757;SHT35;22147;52.388;13.390;2023-06-01T06:52:53;14.24;72.50
47757;SHT35;22147;52.388;13.390;2023-06-01T06:55:23;14.09;73.06
47757;SHT35;22147;52.388;13.390;2023-06-01T06:57:50;14.13;73.33
47757;SHT35;22147;52.388;13.390;2023-06-01T07:00:21;14.17;73.14
47757;SHT35;22147;52.388;13.390;2023-06-01T07:02:50;14.19;72.93
47757;SHT35;22147;52.388;13.390;2023-06-01T07:05:21;14.20;73.41
47757;SHT35;22147;52.388;13.390;2023-06-01T07:07:50;14.34;72.25
47757;SHT35;22147;52.388;13.390;2023-06-01T07:10:21;14.55;71.86
47757;SHT35;22147;52.388;13.390;2023-06-01T07:12:51;14.71;71.09
47757;SHT35;22147;52.388;13.390;2023-06-01T07:15:21;14.67;70.34
47757;SHT35;22147;52.388;13.390;2023-06-01T07:17:51;14.93;70.57
47757;SHT35;22147;52.388;13.390;2023-06-01T07:20:21;15.10;69.16
47757;SHT35;22147;52.388;13.390;2023-06-01T07:22:51;15.19;69.04
47757;SHT35;22147;52.388;13.390;2023-06-01T07:25:22;15.25;68.67
47757;SHT35;22147;52.388;13.390;2023-06-01T07:27:52;15.19;68.30
47757;SHT35;22147;52.388;13.390;2023-06-01T07:30:22;15.02;69.04
47757;SHT35;22147;52.388;13.390;2023-06-01T07:32:52;14.92;69.74
47757;SHT35;22147;52.388;13.390;2023-06-01T07:35:22;14.96;68.66
47757;SHT35;22147;52.388;13.390;2023-06-01T07:37:53;14.93;69.06
47757;SHT35;22147;52.388;13.390;2023-06-01T07:40:23;14.92;69.92
47757;SHT35;22147;52.388;13.390;2023-06-01T07:42:53;15.22;69.45
47757;SHT35;22147;52.388;13.390;2023-06-01T07:45:23;15.33;68.21
47757;SHT35;22147;52.388;13.390;2023-06-01T07:47:53;15.34;67.74
47757;SHT35;22147;52.388;13.390;2023-06-01T07:50:23;15.44;67.41
47757;SHT35;22147;52.388;13.390;2023-06-01T07:52:58;15.64;66.50
47757;SHT35;22147;52.388;13.390;2023-06-01T07:55:29;15.51;66.62
47757;SHT35;22147;52.388;13.390;2023-06-01T07:57:59;15.50;66.55
47757;SHT35;22147;52.388;13.390;2023-06-01T08:00:29;15.53;66.27
47757;SHT35;22147;52.388;13.390;2023-06-01T08:02:59;15.58;66.86
47757;SHT35;22147;52.388;13.390;2023-06-01T08:05:29;15.92;65.96
47757;SHT35;22147;52.388;13.390;2023-06-01T08:07:59;16.63;64.78
47757;SHT35;22147;52.388;13.390;2023-06-01T08:10:29;17.08;62.89
47757;SHT35;22147;52.388;13.390;2023-06-01T08:12:59;17.24;61.06
47757;SHT35;22147;52.388;13.390;2023-06-01T08:15:29;17.32;61.74
47757;SHT35;22147;52.388;13.390;2023-06-01T08:18:00;17.43;60.24
47757;SHT35;22147;52.388;13.390;2023-06-01T08:20:31;17.48;59.13
47757;SHT35;22147;52.388;13.390;2023-06-01T08:22:59;17.60;59.66
47757;SHT35;22147;52.388;13.390;2023-06-01T08:25:28;17.87;58.34
47757;SHT35;22147;52.388;13.390;2023-06-01T08:27:58;18.06;58.99
47757;SHT35;22147;52.388;13.390;2023-06-01T08:30:27;17.83;58.26
47757;SHT35;22147;52.388;13.390;2023-06-01T08:32:57;17.98;58.83
47757;SHT35;22147;52.388;13.390;2023-06-01T08:35:28;18.06;58.54
47757;SHT35;22147;52.388;13.390;2023-06-01T08:37:57;18.00;58.20
47757;SHT35;22147;52.388;13.390;2023-06-01T08:40:27;17.97;57.82
47757;SHT35;22147;52.388;13.390;2023-06-01T08:43:19;18.17;57.93
47757;SHT35;22147;52.388;13.390;2023-06-01T08:45:50;18.42;57.02
47757;SHT35;22147;52.388;13.390;2023-06-01T08:48:23;18.56;56.75
47757;SHT35;22147;52.388;13.390;2023-06-01T08:50:58;18.66;54.86
47757;SHT35;22147;52.388;13.390;2023-06-01T08:53:33;18.71;55.36
47757;SHT35;22147;52.388;13.390;2023-06-01T08:56:02;18.63;55.06
47757;SHT35;22147;52.388;13.390;2023-06-01T08:58:33;18.62;54.91
47757;SHT35;22147;52.388;13.390;2023-06-01T09:01:03;18.68;54.89
47757;SHT35;22147;52.388;13.390;2023-06-01T09:03:31;18.63;54.96
47757;SHT35;22147;52.388;13.390;2023-06-01T09:06:01;18.44;55.24
47757;SHT35;22147;52.388;13.390;2023-06-01T09:08:31;18.55;56.53
47757;SHT35;22147;52.388;13.390;2023-06-01T09:11:01;19.10;54.13
47757;SHT35;22147;52.388;13.390;2023-06-01T09:13:40;19.31;55.46
47757;SHT35;22147;52.388;13.390;2023-06-01T09:16:10;19.47;54.47
47757;SHT35;22147;52.388;13.390;2023-06-01T09:18:58;19.59;53.18
47757;SHT35;22147;52.388;13.390;2023-06-01T09:21:27;19.48;53.47
47757;SHT35;22147;52.388;13.390;2023-06-01T09:24:20;19.27;54.10
47757;SHT35;22147;52.388;13.390;2023-06-01T09:27:00;19.48;54.44
47757;SHT35;22147;52.388;13.390;2023-06-01T09:29:33;19.65;53.00
47757;SHT35;22147;52.388;13.390;2023-06-01T09:32:02;19.75;52.96
47757;SHT35;22147;52.388;13.390;2023-06-01T09:34:30;19.71;53.25
47757;SHT35;22147;52.388;13.390;2023-06-01T09:37:05;19.75;53.50
47757;SHT35;22147;52.388;13.390;2023-06-01T09:39:36;19.98;52.12
47757;SHT35;22147;52.388;13.390;2023-06-01T09:42:06;20.09;52.50
47757;SHT35;22147;52.388;13.390;2023-06-01T09:44:39;20.03;53.20
47757;SHT35;22147;52.388;13.390;2023-06-01T09:47:12;20.05;51.96
47757;SHT35;22147;52.388;13.390;2023-06-01T09:49:45;19.98;51.31
47757;SHT35;22147;52.388;13.390;2023-06-01T09:52:20;19.96;51.75
47757;SHT35;22147;52.388;13.390;2023-06-01T09:54:51;19.90;51.95
47757;SHT35;22147;52.388;13.390;2023-06-01T09:57:27;20.02;51.70
47757;SHT35;22147;52.388;13.390;2023-06-01T10:00:02;20.24;51.52
47757;SHT35;22147;52.388;13.390;2023-06-01T10:02:41;20.38;50.74
47757;SHT35;22147;52.388;13.390;2023-06-01T10:05:11;20.17;51.26
47757;SHT35;22147;52.388;13.390;2023-06-01T10:07:43;20.26;52.13
47757;SHT35;22147;52.388;13.390;2023-06-01T10:10:14;20.52;50.65
47757;SHT35;22147;52.388;13.390;2023-06-01T10:12:46;20.40;51.39
47757;SHT35;22147;52.388;13.390;2023-06-01T10:15:17;20.38;50.54
47757;SHT35;22147;52.388;13.390;2023-06-01T10:18:01;20.57;50.94
47757;SHT35;22147;52.388;13.390;2023-06-01T10:20:36;20.55;52.04
47757;SHT35;22147;52.388;13.390;2023-06-01T10:23:07;20.43;52.75
47757;SHT35;22147;52.388;13.390;2023-06-01T10:25:52;20.58;51.88
47757;SHT35;22147;52.388;13.390;2023-06-01T10:28:26;20.71;51.80
47757;SHT35;22147;52.388;13.390;2023-06-01T10:31:42;20.78;50.93
47757;SHT35;22147;52.388;13.390;2023-06-01T10:34:13;20.87;51.20
47757;SHT35;22147;52.388;13.390;2023-06-01T10:37:12;20.77;49.83
47757;SHT35;22147;52.388;13.390;2023-06-01T10:39:43;20.77;50.30
47757;SHT35;22147;52.388;13.390;2023-06-01T10:52:32;20.92;49.40
47757;SHT35;22147;52.388;13.390;2023-06-01T10:57:40;21.20;49.04
47757;SHT35;22147;52.388;13.390;2023-06-01T11:00:22;21.29;48.93
47757;SHT35;22147;52.388;13.390;2023-06-01T11:03:02;21.35;48.76
47757;SHT35;22147;52.388;13.390;2023-06-01T11:05:50;21.22;49.10
47757;SHT35;22147;52.388;13.390;2023-06-01T11:11:01;20.96;49.83
47757;SHT35;22147;52.388;13.390;2023-06-01T11:13:37;21.00;49.26
47757;SHT35;22147;52.388;13.390;2023-06-01T11:21:21;21.06;50.88
47757;SHT35;22147;52.388;13.390;2023-06-01T11:23:59;21.33;50.56
47757;SHT35;22147;52.388;13.390;2023-06-01T11:26:50;21.25;48.62
47757;SHT35;22147;52.388;13.390;2023-06-01T11:29:24;21.23;49.73
47757;SHT35;22147;52.388;13.390;2023-06-01T11:32:05;21.46;48.84
47757;SHT35;22147;52.388;13.390;2023-06-01T11:34:38;21.44;48.31
47757;SHT35;22147;52.388;13.390;2023-06-01T11:37:16;21.16;47.48
47757;SHT35;22147;52.388;13.390;2023-06-01T11:39:50;21.08;49.54
47757;SHT35;22147;52.388;13.390;2023-06-01T11:42:22;21.22;49.47
47757;SHT35;22147;52.388;13.390;2023-06-01T11:44:59;21.30;48.26
47757;SHT35;22147;52.388;13.390;2023-06-01T11:47:31;21.44;48.70
47757;SHT35;22147;52.388;13.390;2023-06-01T11:50:02;21.35;48.21
47757;SHT35;22147;52.388;13.390;2023-06-01T11:52:33;21.26;49.49
47757;SHT35;22147;52.388;13.390;2023-06-01T11:55:05;21.39;50.23
47757;SHT35;22147;52.388;13.390;2023-06-01T11:57:42;21.56;48.10
47757;SHT35;22147;52.388;13.390;2023-06-01T12:00:13;21.54;48.17
47757;SHT35;22147;52.388;13.390;2023-06-01T12:02:43;21.47;47.41
47757;SHT35;22147;52.388;13.390;2023-06-01T12:05:11;21.50;46.85
47757;SHT35;22147;52.388;13.390;2023-06-01T12:07:50;21.59;47.02
47757;SHT35;22147;52.388;13.390;2023-06-01T12:10:23;21.60;45.80
47757;SHT35;22147;52.388;13.390;2023-06-01T12:12:54;21.49;46.96
47757;SHT35;22147;52.388;13.390;2023-06-01T12:15:21;21.54;47.39
47757;SHT35;22147;52.388;13.390;2023-06-01T12:17:55;21.67;47.61
47757;SHT35;22147;52.388;13.390;2023-06-01T12:20:42;21.66;46.21
47757;SHT35;22147;52.388;13.390;2023-06-01T12:23:17;21.56;47.27
47757;SHT35;22147;52.388;13.390;2023-06-01T12:25:56;21.57;47.07
47757;SHT35;22147;52.388;13.390;2023-06-01T12:28:53;21.56;47.12
47757;SHT35;22147;52.388;13.390;2023-06-01T12:31:29;21.50;46.76
47757;SHT35;22147;52.388;13.390;2023-06-01T12:34:00;21.56;47.64
47757;SHT35;22147;52.388;13.390;2023-06-01T12:36:36;21.74;46.97
47757;SHT35;22147;52.388;13.390;2023-06-01T12:39:07;21.78;46.41
47757;SHT35;22147;52.388;13.390;2023-06-01T12:41:47;21.49;46.17
47757;SHT35;22147;52.388;13.390;2023-06-01T12:44:21;21.56;47.44
47757;SHT35;22147;52.388;13.390;2023-06-01T12:46:57;21.64;45.99
47757;SHT35;22147;52.388;13.390;2023-06-01T12:49:28;21.77;46.36
47757;SHT35;22147;52.388;13.390;2023-06-01T12:51:59;21.97;46.82
47757;SHT35;22147;52.388;13.390;2023-06-01T12:54:29;22.04;45.15
47757;SHT35;22147;52.388;13.390;2023-06-01T12:57:00;21.98;45.55
47757;SHT35;22147;52.388;13.390;2023-06-01T12:59:30;22.01;47.32
47757;SHT35;22147;52.388;13.390;2023-06-01T13:02:00;22.08;45.97
47757;SHT35;22147;52.388;13.390;2023-06-01T13:04:28;22.21;46.76
47757;SHT35;22147;52.388;13.390;2023-06-01T13:06:59;22.31;44.39
47757;SHT35;22147;52.388;13.390;2023-06-01T13:09:30;22.32;44.81
47757;SHT35;22147;52.388;13.390;2023-06-01T13:12:02;22.29;44.66
47757;SHT35;22147;52.388;13.390;2023-06-01T13:14:33;22.38;43.83
47757;SHT35;22147;52.388;13.390;2023-06-01T13:17:04;22.43;44.10
47757;SHT35;22147;52.388;13.390;2023-06-01T13:19:35;22.69;44.22
47757;SHT35;22147;52.388;13.390;2023-06-01T13:22:07;22.62;43.46
47757;SHT35;22147;52.388;13.390;2023-06-01T13:24:37;22.59;43.89
47757;SHT35;22147;52.388;13.390;2023-06-01T13:27:27;22.84;43.03
47757;SHT35;22147;52.388;13.390;2023-06-01T13:29:57;22.83;43.76
47757;SHT35;22147;52.388;13.390;2023-06-01T13:32:28;23.00;42.69
47757;SHT35;22147;52.388;13.390;2023-06-01T13:35:00;22.89;42.61
47757;SHT35;22147;52.388;13.390;2023-06-01T13:37:30;22.96;42.90
47757;SHT35;22147;52.388;13.390;2023-06-01T13:40:00;23.00;42.55
47757;SHT35;22147;52.388;13.390;2023-06-01T13:42:31;23.16;42.56
47757;SHT35;22147;52.388;13.390;2023-06-01T13:45:02;23.27;43.00
47757;SHT35;22147;52.388;13.390;2023-06-01T13:47:33;23.39;42.24
47757;SHT35;22147;52.388;13.390;2023-06-01T13:50:04;23.37;42.71
47757;SHT35;22147;52.388;13.390;2023-06-01T13:52:34;23.51;42.45
47757;SHT35;22147;52.388;13.390;2023-06-01T13:55:05;23.59;42.23
47757;SHT35;22147;52.388;13.390;2023-06-01T13:57:36;23.72;41.65
47757;SHT35;22147;52.388;13.390;2023-06-01T14:00:09;23.66;42.72
47757;SHT35;22147;52.388;13.390;2023-06-01T14:02:40;23.86;42.73
47757;SHT35;22147;52.388;13.390;2023-06-01T14:05:10;24.13;42.13
47757;SHT35;22147;52.388;13.390;2023-06-01T14:07:54;24.08;40.12
47757;SHT35;22147;52.388;13.390;2023-06-01T14:10:24;24.06;41.04
47757;SHT35;22147;52.388;13.390;2023-06-01T14:12:55;24.02;41.06
47757;SHT35;22147;52.388;13.390;2023-06-01T14:15:25;24.23;40.60
47757;SHT35;22147;52.388;13.390;2023-06-01T14:17:55;24.43;41.44
47757;SHT35;22147;52.388;13.390;2023-06-01T14:20:26;24.65;39.82
47757;SHT35;22147;52.388;13.390;2023-06-01T14:22:56;24.80;40.34
47757;SHT35;22147;52.388;13.390;2023-06-01T14:25:27;24.81;40.45
47757;SHT35;22147;52.388;13.390;2023-06-01T14:27:57;24.78;39.56
47757;SHT35;22147;52.388;13.390;2023-06-01T14:30:28;24.95;40.52
47757;SHT35;22147;52.388;13.390;2023-06-01T14:32:58;25.09;38.18
47757;SHT35;22147;52.388;13.390;2023-06-01T14:35:28;24.96;39.11
47757;SHT35;22147;52.388;13.390;2023-06-01T14:37:59;24.85;38.74
47757;SHT35;22147;52.388;13.390;2023-06-01T14:40:29;24.84;38.71
47757;SHT35;22147;52.388;13.390;2023-06-01T14:42:59;24.99;39.06
47757;SHT35;22147;52.388;13.390;2023-06-01T14:45:29;24.99;38.61
47757;SHT35;22147;52.388;13.390;2023-06-01T14:48:00;24.94;38.94
47757;SHT35;22147;52.388;13.390;2023-06-01T14:50:31;24.72;39.58
47757;SHT35;22147;52.388;13.390;2023-06-01T14:53:01;24.98;39.38
47757;SHT35;22147;52.388;13.390;2023-06-01T14:55:32;25.29;39.59
47757;SHT35;22147;52.388;13.390;2023-06-01T14:58:00;25.40;38.69
47757;SHT35;22147;52.388;13.390;2023-06-01T15:00:32;25.36;39.22
47757;SHT35;22147;52.388;13.390;2023-06-01T15:03:01;25.15;38.85
47757;SHT35;22147;52.388;13.390;2023-06-01T15:05:29;25.07;38.45
47757;SHT35;22147;52.388;13.390;2023-06-01T15:07:57;25.09;38.94
47757;SHT35;22147;52.388;13.390;2023-06-01T15:10:26;25.09;37.86
47757;SHT35;22147;52.388;13.390;2023-06-01T15:12:54;25.15;39.76
47757;SHT35;22147;52.388;13.390;2023-06-01T15:15:23;25.49;38.79
47757;SHT35;22147;52.388;13.390;2023-06-01T15:43:28;24.89;38.46
47757;SHT35;22147;52.388;13.390;2023-06-01T15:45:58;24.71;39.69
47757;SHT35;22147;52.388;13.390;2023-06-01T15:48:28;24.80;39.34
47757;SHT35;22147;52.388;13.390;2023-06-01T15:50:58;24.91;38.38
47757;SHT35;22147;52.388;13.390;2023-06-01T15:53:28;24.94;37.93
47757;SHT35;22147;52.388;13.390;2023-06-01T15:55:58;24.77;37.84
47757;SHT35;22147;52.388;13.390;2023-06-01T15:58:28;24.82;37.87
47757;SHT35;22147;52.388;13.390;2023-06-01T16:00:58;25.05;37.65
47757;SHT35;22147;52.388;13.390;2023-06-01T16:03:41;25.12;36.23
47757;SHT35;22147;52.388;13.390;2023-06-01T16:06:12;25.07;36.65
47757;SHT35;22147;52.388;13.390;2023-06-01T16:08:42;25.12;36.83
47757;SHT35;22147;52.388;13.390;2023-06-01T16:11:12;25.36;36.17
47757;SHT35;22147;52.388;13.390;2023-06-01T16:13:42;25.47;36.83
47757;SHT35;22147;52.388;13.390;2023-06-01T16:16:13;25.71;36.81
47757;SHT35;22147;52.388;13.390;2023-06-01T16:18:45;25.74;36.69
47757;SHT35;22147;52.388;13.390;2023-06-01T16:21:15;25.71;36.96
47757;SHT35;22147;52.388;13.390;2023-06-01T16:23:45;26.15;37.59
47757;SHT35;22147;52.388;13.390;2023-06-01T16:26:15;26.34;35.27
47757;SHT35;22147;52.388;13.390;2023-06-01T16:28:45;25.91;36.05
47757;SHT35;22147;52.388;13.390;2023-06-01T16:31:20;25.84;36.04
47757;SHT35;22147;52.388;13.390;2023-06-01T16:33:51;26.24;35.70
47757;SHT35;22147;52.388;13.390;2023-06-01T16:36:21;26.62;35.22
47757;SHT35;22147;52.388;13.390;2023-06-01T16:38:51;26.66;34.26
47757;SHT35;22147;52.388;13.390;2023-06-01T16:41:21;26.63;34.59